BRU weather

Brussels Airport
Brussels, Brussels-Capital Region, Belgium

Public forecast

Using degrees Celsius for public forecast. Weather courtesy of forecast.io.

Current aviation weather report (METAR) for Brussels Airport

Retrieved 2019/10/13 18:20 UTC (39 minutes ago):

EBBR 131820Z 24013KT 9999 SCT035 20/14 Q1009 TEMPO 25020G28KT 4000 SHRA

Aviation forecast (TAF) for Brussels Airport

Retrieved 2019/10/13 18:28 UTC (31 minutes ago):

TAF EBBR 131706Z 1318/1424 24009KT 9999 FEW035 TEMPO 1318/1319 25015G25KT 3500 SHRA PROB30 TEMPO 1401/1405 3500 BR PROB30 TEMPO 1405/1408 3500 -RA BR FEW008 BKN012 BECMG 1409/1411 16010KT